createdAt,value
2019-03-21T00:02:12.407Z,12.35
2019-03-21T00:04:42.436Z,11.08
2019-03-21T00:07:10.857Z,11.83
2019-03-21T00:09:39.311Z,15.05
2019-03-21T00:12:10.266Z,11.95
2019-03-21T00:14:50.453Z,12.75
2019-03-21T00:17:24.468Z,12.68
2019-03-21T00:19:52.905Z,14.63
2019-03-21T00:22:21.333Z,11.00
2019-03-21T00:24:50.013Z,16.00
2019-03-21T00:27:18.450Z,13.60
2019-03-21T00:29:46.846Z,15.03
2019-03-21T00:32:15.350Z,9.30
2019-03-21T00:34:43.760Z,10.65
2019-03-21T00:37:12.222Z,11.55
2019-03-21T00:39:40.653Z,13.13
2019-03-21T00:42:09.949Z,11.03
2019-03-21T00:44:38.374Z,13.48
2019-03-21T00:47:06.786Z,11.85
2019-03-21T00:49:35.570Z,9.08
2019-03-21T00:52:04.075Z,11.03
2019-03-21T00:54:32.505Z,11.28
2019-03-21T00:57:00.930Z,11.68
2019-03-21T00:59:29.422Z,10.32
2019-03-21T01:01:57.864Z,12.15
2019-03-21T01:04:27.745Z,9.30
2019-03-21T01:06:56.153Z,8.00
2019-03-21T01:09:24.583Z,9.68
2019-03-21T01:11:53.018Z,13.13
2019-03-21T01:14:29.354Z,10.70
2019-03-21T01:16:51.562Z,8.15
2019-03-21T01:19:20.028Z,16.30
2019-03-21T01:21:48.426Z,8.68
2019-03-21T01:24:16.899Z,12.53
2019-03-21T01:26:45.348Z,8.55
2019-03-21T01:29:14.283Z,11.20
2019-03-21T01:31:42.689Z,8.48
2019-03-21T01:34:12.265Z,11.75
2019-03-21T01:36:40.673Z,10.93
2019-03-21T01:39:09.163Z,8.03
2019-03-21T01:41:37.578Z,11.70
2019-03-21T01:44:06.082Z,11.12
2019-03-21T01:46:34.485Z,6.85
2019-03-21T01:49:03.395Z,8.80
2019-03-21T01:51:31.865Z,9.98
2019-03-21T01:54:00.284Z,7.00
2019-03-21T01:56:30.641Z,7.80
2019-03-21T01:58:59.069Z,8.95
2019-03-21T02:01:27.625Z,7.85
2019-03-21T02:03:56.089Z,8.30
2019-03-21T02:06:24.521Z,7.15
2019-03-21T02:08:53.153Z,11.08
2019-03-21T02:11:21.867Z,8.55
2019-03-21T02:13:50.294Z,10.40
2019-03-21T02:16:18.718Z,10.25
2019-03-21T02:18:47.205Z,11.40
2019-03-21T02:21:15.735Z,9.43
2019-03-21T02:23:44.580Z,11.48
2019-03-21T02:26:13.007Z,8.25
2019-03-21T02:28:41.541Z,8.55
2019-03-21T02:31:10.347Z,7.72
2019-03-21T02:33:44.199Z,10.23
2019-03-21T02:36:13.994Z,14.18
2019-03-21T02:38:42.401Z,9.55
2019-03-21T02:41:17.463Z,8.48
2019-03-21T02:43:45.949Z,10.08
2019-03-21T02:46:14.378Z,10.82
2019-03-21T02:48:42.780Z,14.40
2019-03-21T02:51:11.182Z,15.28
2019-03-21T02:53:39.615Z,10.68
2019-03-21T02:56:11.310Z,8.58
2019-03-21T02:58:39.726Z,9.55
2019-03-21T03:01:08.147Z,10.72
2019-03-21T03:03:36.811Z,10.00
2019-03-21T03:06:05.307Z,8.03
2019-03-21T03:08:33.699Z,9.73
2019-03-21T03:11:10.859Z,10.15
2019-03-21T03:13:38.961Z,11.48
2019-03-21T03:16:07.464Z,11.20
2019-03-21T03:18:35.879Z,10.93
2019-03-21T03:21:04.358Z,9.58
2019-03-21T03:23:32.766Z,9.68
2019-03-21T03:26:01.187Z,11.35
2019-03-21T03:28:38.374Z,8.60
2019-03-21T03:31:06.794Z,8.95
2019-03-21T03:33:35.350Z,11.60
2019-03-21T03:36:03.808Z,8.00
2019-03-21T03:38:32.287Z,7.22
2019-03-21T03:41:02.337Z,8.90
2019-03-21T03:43:30.760Z,11.15
2019-03-21T03:45:59.189Z,8.70
2019-03-21T03:48:28.544Z,12.98
2019-03-21T03:50:56.970Z,8.88
2019-03-21T03:53:25.742Z,8.95
2019-03-21T03:55:54.215Z,9.33
2019-03-21T03:58:25.073Z,14.28
2019-03-21T04:00:53.590Z,9.50
2019-03-21T04:03:22.203Z,10.58
2019-03-21T04:05:50.602Z,11.00
2019-03-21T04:08:19.013Z,8.53
2019-03-21T04:10:53.241Z,11.73
2019-03-21T04:13:21.687Z,10.03
2019-03-21T04:15:53.235Z,8.30
2019-03-21T04:18:22.909Z,11.48
2019-03-21T04:20:56.947Z,9.75
2019-03-21T04:23:25.377Z,11.57
2019-03-21T04:26:05.793Z,10.43
2019-03-21T04:28:34.621Z,8.90
2019-03-21T04:31:03.041Z,12.47
2019-03-21T04:33:31.514Z,8.30
2019-03-21T04:36:00.033Z,8.03
2019-03-21T04:38:28.691Z,14.93
2019-03-21T04:40:57.121Z,10.60
2019-03-21T04:43:25.689Z,12.15
2019-03-21T04:46:02.837Z,14.38
2019-03-21T04:48:24.256Z,16.50
2019-03-21T04:50:52.721Z,12.13
2019-03-21T04:53:21.133Z,12.58
2019-03-21T04:55:49.529Z,9.90
2019-03-21T04:58:17.954Z,9.78
2019-03-21T05:00:57.142Z,8.30
2019-03-21T05:03:28.454Z,11.70
2019-03-21T05:05:56.938Z,9.45
2019-03-21T05:08:25.367Z,10.63
2019-03-21T05:10:53.850Z,10.93
2019-03-21T05:13:22.275Z,12.45
2019-03-21T05:15:52.019Z,13.00
2019-03-21T05:18:39.117Z,15.63
2019-03-21T05:21:14.266Z,15.38
2019-03-21T05:23:42.719Z,17.73
2019-03-21T05:26:11.102Z,14.53
2019-03-21T05:28:39.541Z,14.73
2019-03-21T05:31:11.155Z,11.45
2019-03-21T05:33:39.604Z,9.20
2019-03-21T05:36:08.143Z,14.75
2019-03-21T05:38:36.578Z,17.67
2019-03-21T05:41:05.311Z,11.65
2019-03-21T05:43:37.032Z,12.65
2019-03-21T05:46:05.464Z,11.12
2019-03-21T05:48:33.881Z,12.75
2019-03-21T05:51:02.354Z,11.90
2019-03-21T05:53:30.873Z,12.70
2019-03-21T05:55:59.666Z,14.83
2019-03-21T05:58:28.102Z,12.93
2019-03-21T06:01:05.966Z,11.48
2019-03-21T06:03:48.628Z,10.90
2019-03-21T06:06:28.769Z,10.35
2019-03-21T06:08:57.195Z,15.68
2019-03-21T06:11:25.636Z,11.88
2019-03-21T06:13:54.863Z,11.70
2019-03-21T06:16:37.035Z,10.88
2019-03-21T06:19:23.685Z,11.78
2019-03-21T06:22:07.532Z,15.58
2019-03-21T06:24:44.748Z,16.25
2019-03-21T06:27:29.907Z,13.85
2019-03-21T06:29:58.907Z,13.78
2019-03-21T06:32:27.938Z,12.03
2019-03-21T06:34:57.406Z,14.18
2019-03-21T06:37:28.470Z,9.58
2019-03-21T06:39:56.802Z,10.40
2019-03-21T06:42:25.466Z,11.40
2019-03-21T06:44:54.027Z,9.53
2019-03-21T06:47:22.441Z,11.80
2019-03-21T06:49:50.871Z,9.40
2019-03-21T06:52:19.290Z,13.18
2019-03-21T06:54:47.734Z,11.38
2019-03-21T06:57:16.170Z,13.50
2019-03-21T06:59:44.585Z,9.35
2019-03-21T07:02:12.998Z,11.43
2019-03-21T07:04:41.444Z,11.40
2019-03-21T07:07:09.852Z,9.15
2019-03-21T07:09:38.314Z,9.48
2019-03-21T07:12:06.781Z,9.15
2019-03-21T07:14:35.214Z,8.38
2019-03-21T07:17:03.653Z,11.00
2019-03-21T07:19:32.174Z,9.55
2019-03-21T07:22:00.570Z,8.98
2019-03-21T07:24:29.013Z,8.00
2019-03-21T07:26:57.409Z,11.83
2019-03-21T07:29:25.837Z,10.38
2019-03-21T07:31:54.315Z,9.43
2019-03-21T07:34:22.765Z,8.50
2019-03-21T07:36:51.234Z,11.00
2019-03-21T07:39:20.070Z,14.87
2019-03-21T07:41:48.542Z,10.15
2019-03-21T07:44:17.049Z,41.77
2019-03-21T07:46:45.483Z,9.75
2019-03-21T07:49:13.898Z,9.30
2019-03-21T07:51:44.974Z,8.55
2019-03-21T07:54:12.894Z,9.58
2019-03-21T07:56:41.328Z,8.68
2019-03-21T07:59:09.759Z,8.53
2019-03-21T08:01:38.264Z,8.65
2019-03-21T08:04:06.687Z,8.00
2019-03-21T08:06:35.148Z,6.53
2019-03-21T08:09:05.143Z,12.30
2019-03-21T08:11:33.625Z,6.95
2019-03-21T08:14:02.054Z,6.53
2019-03-21T08:16:30.583Z,8.73
2019-03-21T08:18:59.109Z,8.05
2019-03-21T08:21:27.878Z,8.30
2019-03-21T08:23:56.281Z,9.48
2019-03-21T08:26:24.704Z,6.00
2019-03-21T08:28:53.150Z,5.90
2019-03-21T08:31:21.587Z,11.33
2019-03-21T08:33:50.031Z,10.83
2019-03-21T08:36:18.697Z,55.30
2019-03-21T08:38:47.174Z,134.10
2019-03-21T08:41:15.626Z,38.13
2019-03-21T08:43:44.068Z,384.60
2019-03-21T08:46:12.562Z,1277.17
2019-03-21T08:48:41.045Z,1999.90
2019-03-21T08:51:09.581Z,665.92
2019-03-21T08:53:38.004Z,1289.00
2019-03-21T08:56:06.577Z,811.88
2019-03-21T08:58:35.074Z,738.83
2019-03-21T09:01:03.550Z,1999.90
2019-03-21T09:03:32.016Z,150.10
2019-03-21T09:06:00.434Z,8.25
2019-03-21T09:08:28.837Z,8.53
2019-03-21T09:10:57.265Z,7.80
2019-03-21T09:13:25.705Z,4.92
2019-03-21T09:15:54.132Z,6.57
2019-03-21T09:18:22.588Z,8.28
2019-03-21T09:20:51.025Z,5.47
2019-03-21T09:23:19.496Z,9.48
2019-03-21T09:25:47.932Z,14.00
2019-03-21T09:28:16.362Z,6.20
2019-03-21T09:30:44.800Z,7.97
2019-03-21T09:33:13.275Z,8.98
2019-03-21T09:35:42.129Z,6.37
2019-03-21T09:38:10.530Z,4.53
2019-03-21T09:40:38.989Z,5.85
2019-03-21T09:43:07.442Z,5.65
2019-03-21T09:45:35.861Z,6.72
2019-03-21T09:48:04.282Z,10.82
2019-03-21T09:50:32.709Z,5.85
2019-03-21T09:53:01.142Z,11.43
2019-03-21T09:55:29.671Z,7.33
2019-03-21T09:57:58.102Z,5.65
2019-03-21T10:00:34.745Z,5.78
2019-03-21T10:03:03.230Z,17.77
2019-03-21T10:05:31.710Z,5.53
2019-03-21T10:08:00.322Z,7.78
2019-03-21T10:10:32.651Z,4.55
2019-03-21T10:13:01.145Z,5.72
2019-03-21T10:15:29.684Z,6.35
2019-03-21T10:17:58.165Z,9.20
2019-03-21T10:20:26.578Z,6.93
2019-03-21T10:22:55.156Z,8.20
2019-03-21T10:25:26.381Z,6.10
2019-03-21T10:27:53.793Z,6.58
2019-03-21T10:30:39.457Z,5.25
2019-03-21T10:33:09.678Z,4.83
2019-03-21T10:35:38.260Z,7.12
2019-03-21T10:38:07.411Z,9.05
2019-03-21T10:40:36.073Z,6.33
2019-03-21T10:43:05.241Z,4.33
2019-03-21T10:45:33.722Z,6.83
2019-03-21T10:48:02.217Z,5.03
2019-03-21T10:50:32.809Z,4.35
2019-03-21T10:53:01.218Z,5.17
2019-03-21T10:55:29.696Z,7.60
2019-03-21T10:57:58.528Z,6.50
2019-03-21T11:00:27.434Z,7.20
2019-03-21T11:02:56.137Z,5.87
2019-03-21T11:05:24.642Z,6.60
2019-03-21T11:07:53.106Z,4.40
2019-03-21T11:10:21.596Z,8.80
2019-03-21T11:12:50.079Z,6.90
2019-03-21T11:15:18.717Z,5.33
2019-03-21T11:17:47.203Z,6.00
2019-03-21T11:20:24.339Z,4.90
2019-03-21T11:22:52.766Z,7.72
2019-03-21T11:25:21.176Z,6.83
2019-03-21T11:27:49.602Z,7.10
2019-03-21T11:30:21.134Z,7.33
2019-03-21T11:32:49.535Z,8.03
2019-03-21T11:35:17.974Z,5.57
2019-03-21T11:37:46.706Z,8.95
2019-03-21T11:40:16.758Z,6.47
2019-03-21T11:42:45.157Z,6.80
2019-03-21T11:45:15.101Z,5.80
2019-03-21T11:47:43.675Z,8.85
2019-03-21T11:50:12.152Z,7.70
2019-03-21T11:52:41.251Z,7.58
2019-03-21T11:55:10.217Z,4.83
2019-03-21T11:57:38.633Z,8.35
2019-03-21T12:00:08.474Z,6.17
2019-03-21T12:02:36.877Z,6.80
2019-03-21T12:05:06.880Z,6.03
2019-03-21T12:07:35.295Z,7.10
2019-03-21T12:10:05.202Z,7.40
2019-03-21T12:12:33.662Z,6.30
2019-03-21T12:15:02.078Z,6.40
2019-03-21T12:17:30.486Z,8.33
2019-03-21T12:19:58.913Z,7.77
2019-03-21T12:22:30.165Z,6.10
2019-03-21T12:24:57.444Z,6.07
2019-03-21T12:27:25.942Z,10.50
2019-03-21T12:29:54.362Z,7.43
2019-03-21T12:32:22.825Z,6.93
2019-03-21T12:34:51.315Z,10.13
2019-03-21T12:37:19.765Z,6.50
2019-03-21T12:39:48.195Z,9.20
2019-03-21T12:42:16.945Z,13.33
2019-03-21T12:44:45.446Z,13.30
2019-03-21T12:47:14.004Z,8.10
2019-03-21T12:49:42.423Z,7.27
2019-03-21T12:52:11.342Z,5.97
2019-03-21T12:54:39.797Z,6.40
2019-03-21T12:57:08.225Z,16.23
2019-03-21T12:59:36.658Z,13.43
2019-03-21T13:02:05.066Z,11.07
2019-03-21T13:04:33.470Z,8.43
2019-03-21T13:07:01.871Z,6.97
2019-03-21T13:09:30.374Z,7.40
2019-03-21T13:11:58.786Z,7.20
2019-03-21T13:14:27.201Z,8.60
2019-03-21T13:16:55.642Z,7.17
2019-03-21T13:19:24.065Z,7.23
2019-03-21T13:21:52.465Z,7.13
2019-03-21T13:24:20.909Z,10.97
2019-03-21T13:26:49.352Z,6.30
2019-03-21T13:29:17.799Z,7.57
2019-03-21T13:31:46.206Z,10.23
2019-03-21T13:34:14.653Z,5.93
2019-03-21T13:36:43.121Z,7.50
2019-03-21T13:39:11.568Z,9.90
2019-03-21T13:41:39.992Z,7.27
2019-03-21T13:44:08.436Z,9.20
2019-03-21T13:46:36.845Z,6.77
2019-03-21T13:49:06.194Z,8.47
2019-03-21T13:51:34.765Z,8.70
2019-03-21T13:54:03.188Z,5.93
2019-03-21T13:56:38.085Z,8.43
2019-03-21T13:59:02.039Z,9.27
2019-03-21T14:01:30.468Z,11.47
2019-03-21T14:03:58.918Z,12.73
2019-03-21T14:06:28.169Z,5.37
2019-03-21T14:08:56.614Z,5.93
2019-03-21T14:11:25.089Z,6.20
2019-03-21T14:13:53.533Z,5.80
2019-03-21T14:16:22.014Z,6.53
2019-03-21T14:18:50.428Z,9.80
2019-03-21T14:21:18.913Z,9.27
2019-03-21T14:23:47.341Z,7.77
2019-03-21T14:26:15.749Z,8.10
2019-03-21T14:28:44.165Z,5.70
2019-03-21T14:31:12.634Z,7.13
2019-03-21T14:33:41.035Z,6.20
2019-03-21T14:36:09.462Z,8.30
2019-03-21T14:38:37.953Z,5.10
2019-03-21T14:41:06.484Z,5.83
2019-03-21T14:43:34.914Z,8.57
2019-03-21T14:46:03.346Z,13.73
2019-03-21T14:48:31.758Z,6.40
2019-03-21T14:51:00.190Z,7.60
2019-03-21T14:53:29.369Z,6.30
2019-03-21T14:55:57.851Z,5.90
2019-03-21T14:58:26.316Z,6.47
2019-03-21T15:00:54.730Z,7.37
2019-03-21T15:03:23.153Z,12.97
2019-03-21T15:05:51.586Z,5.33
2019-03-21T15:08:19.987Z,8.80
2019-03-21T15:10:48.439Z,12.97
2019-03-21T15:13:16.922Z,8.70
2019-03-21T15:15:45.383Z,18.23
2019-03-21T15:18:13.847Z,8.10
2019-03-21T15:20:42.281Z,8.40
2019-03-21T15:23:10.747Z,49.43
2019-03-21T15:25:39.192Z,4.93
2019-03-21T15:28:07.920Z,6.67
2019-03-21T15:30:36.391Z,12.83
2019-03-21T15:33:04.878Z,7.57
2019-03-21T15:35:33.411Z,5.73
2019-03-21T15:38:01.853Z,6.87
2019-03-21T15:40:30.352Z,7.93
2019-03-21T15:42:58.804Z,6.03
2019-03-21T15:45:27.247Z,5.57
2019-03-21T15:47:55.697Z,6.00
2019-03-21T15:50:29.857Z,5.50
2019-03-21T15:52:59.318Z,4.97
2019-03-21T15:55:27.766Z,5.57
2019-03-21T15:57:56.168Z,4.90
2019-03-21T16:00:40.006Z,6.03
2019-03-21T16:03:09.554Z,5.90
2019-03-21T16:05:38.283Z,9.20
2019-03-21T16:08:08.903Z,9.03
2019-03-21T16:10:37.356Z,6.03
2019-03-21T16:13:05.990Z,4.97
2019-03-21T16:15:34.477Z,9.70
2019-03-21T16:18:02.981Z,10.00
2019-03-21T16:20:31.438Z,5.37
2019-03-21T16:23:00.248Z,6.47
2019-03-21T16:25:28.729Z,5.77
2019-03-21T16:27:57.193Z,6.23
2019-03-21T16:30:25.735Z,10.20
2019-03-21T16:32:54.244Z,6.43
2019-03-21T16:35:22.930Z,10.60
2019-03-21T16:37:51.354Z,9.13
2019-03-21T16:40:19.795Z,6.90
2019-03-21T16:42:48.245Z,6.37
2019-03-21T16:45:17.550Z,5.77
2019-03-21T16:47:46.013Z,6.80
2019-03-21T16:50:15.166Z,6.43
2019-03-21T16:52:43.700Z,7.00
2019-03-21T16:55:13.681Z,6.43
2019-03-21T16:57:42.377Z,6.00
2019-03-21T17:00:18.045Z,7.90
2019-03-21T17:02:47.357Z,6.27
2019-03-21T17:05:15.782Z,5.50
2019-03-21T17:07:44.309Z,7.63
2019-03-21T17:10:14.184Z,7.80
2019-03-21T17:12:44.212Z,9.20
2019-03-21T17:15:13.465Z,8.20
2019-03-21T17:17:41.928Z,7.90
2019-03-21T17:20:11.847Z,6.00
2019-03-21T17:22:40.454Z,8.10
2019-03-21T17:25:10.137Z,5.77
2019-03-21T17:27:38.638Z,6.70
2019-03-21T17:30:17.173Z,5.50
2019-03-21T17:32:45.630Z,9.40
2019-03-21T17:35:14.108Z,7.40
2019-03-21T17:37:42.542Z,7.00
2019-03-21T17:40:13.148Z,7.27
2019-03-21T17:42:41.586Z,6.97
2019-03-21T17:45:15.225Z,9.30
2019-03-21T17:47:43.679Z,6.57
2019-03-21T17:50:14.225Z,6.70
2019-03-21T17:52:42.727Z,7.57
2019-03-21T17:55:11.256Z,5.73
2019-03-21T17:57:39.818Z,5.97
2019-03-21T18:00:17.526Z,9.50
2019-03-21T18:02:46.518Z,6.27
2019-03-21T18:05:15.055Z,7.53
2019-03-21T18:07:43.501Z,7.33
2019-03-21T18:10:26.769Z,6.47
2019-03-21T18:12:55.531Z,7.50
2019-03-21T18:15:24.040Z,8.28
2019-03-21T18:17:52.886Z,9.55
2019-03-21T18:20:21.340Z,10.10
2019-03-21T18:22:49.830Z,8.07
2019-03-21T18:25:18.350Z,9.03
2019-03-21T18:27:46.790Z,9.95
2019-03-21T18:30:15.492Z,9.23
2019-03-21T18:32:44.299Z,10.15
2019-03-21T18:35:13.155Z,12.63
2019-03-21T18:37:41.647Z,11.70
2019-03-21T18:40:11.440Z,12.00
2019-03-21T18:42:39.924Z,10.50
2019-03-21T18:45:11.004Z,12.58
2019-03-21T18:47:39.449Z,8.03
2019-03-21T18:50:13.842Z,9.90
2019-03-21T18:52:42.359Z,8.83
2019-03-21T18:55:11.111Z,13.35
2019-03-21T18:57:39.573Z,11.80
2019-03-21T19:00:13.614Z,10.30
2019-03-21T19:02:42.087Z,9.40
2019-03-21T19:05:10.873Z,12.70
2019-03-21T19:07:39.574Z,9.40
2019-03-21T19:10:11.030Z,11.87
2019-03-21T19:12:39.470Z,13.60
2019-03-21T19:15:10.542Z,9.93
2019-03-21T19:17:38.990Z,17.00
2019-03-21T19:20:15.957Z,13.32
2019-03-21T19:22:44.385Z,11.50
2019-03-21T19:25:18.820Z,15.00
2019-03-21T19:27:43.929Z,12.35
2019-03-21T19:30:14.853Z,10.90
2019-03-21T19:32:43.314Z,10.05
2019-03-21T19:35:12.219Z,15.43
2019-03-21T19:37:40.670Z,13.43
2019-03-21T19:40:11.923Z,13.62
2019-03-21T19:42:40.369Z,12.88
2019-03-21T19:45:11.140Z,17.65
2019-03-21T19:47:39.557Z,14.00
2019-03-21T19:50:16.566Z,18.48
2019-03-21T19:52:45.423Z,10.90
2019-03-21T19:55:14.114Z,11.15
2019-03-21T19:57:42.597Z,14.93
2019-03-21T20:00:23.144Z,15.95
2019-03-21T20:02:51.621Z,15.38
2019-03-21T20:05:20.372Z,14.70
2019-03-21T20:07:48.880Z,26.17
2019-03-21T20:10:19.472Z,29.32
2019-03-21T20:12:48.087Z,17.87
2019-03-21T20:15:20.486Z,22.70
2019-03-21T20:17:48.950Z,22.85
2019-03-21T20:20:18.749Z,20.82
2019-03-21T20:22:47.426Z,16.32
2019-03-21T20:25:16.010Z,16.05
2019-03-21T20:27:44.504Z,15.58
2019-03-21T20:30:23.054Z,16.80
2019-03-21T20:32:51.997Z,11.63
2019-03-21T20:35:20.466Z,19.85
2019-03-21T20:37:49.234Z,16.10
2019-03-21T20:40:19.841Z,18.73
2019-03-21T20:42:48.303Z,16.23
2019-03-21T20:45:18.185Z,17.23
2019-03-21T20:47:46.793Z,18.65
2019-03-21T20:50:15.582Z,14.47
2019-03-21T20:52:44.026Z,19.23
2019-03-21T20:55:12.793Z,15.75
2019-03-21T20:57:41.235Z,21.95
2019-03-21T21:00:21.166Z,13.80
2019-03-21T21:02:50.341Z,10.23
2019-03-21T21:05:19.147Z,10.72
2019-03-21T21:07:47.838Z,11.00
2019-03-21T21:10:16.329Z,15.48
2019-03-21T21:12:44.749Z,10.25
2019-03-21T21:15:15.695Z,10.93
2019-03-21T21:17:44.404Z,15.05
2019-03-21T21:20:17.455Z,12.20
2019-03-21T21:22:45.896Z,15.18
2019-03-21T21:25:14.778Z,8.23
2019-03-21T21:27:49.162Z,16.32
2019-03-21T21:30:16.494Z,11.60
2019-03-21T21:32:44.937Z,10.50
2019-03-21T21:35:13.519Z,16.55
2019-03-21T21:37:41.922Z,12.03
2019-03-21T21:40:11.751Z,10.48
2019-03-21T21:42:40.166Z,13.98
2019-03-21T21:45:10.821Z,13.65
2019-03-21T21:47:39.296Z,16.23
2019-03-21T21:50:13.438Z,12.85
2019-03-21T21:52:42.507Z,12.50
2019-03-21T21:55:11.449Z,12.15
2019-03-21T21:57:40.129Z,13.15
2019-03-21T22:00:19.771Z,9.33
2019-03-21T22:02:48.209Z,14.78
2019-03-21T22:05:16.890Z,9.08
2019-03-21T22:07:45.637Z,10.63
2019-03-21T22:10:14.327Z,11.28
2019-03-21T22:12:42.764Z,8.83
2019-03-21T22:15:15.146Z,12.20
2019-03-21T22:17:43.730Z,12.25
2019-03-21T22:20:14.685Z,20.70
2019-03-21T22:22:43.433Z,14.55
2019-03-21T22:25:12.110Z,11.75
2019-03-21T22:27:40.509Z,9.50
2019-03-21T22:30:19.396Z,10.80
2019-03-21T22:32:47.959Z,13.40
2019-03-21T22:35:16.675Z,12.37
2019-03-21T22:37:45.080Z,11.60
2019-03-21T22:40:15.547Z,12.23
2019-03-21T22:42:44.011Z,14.55
2019-03-21T22:45:17.014Z,10.72
2019-03-21T22:47:45.426Z,11.57
2019-03-21T22:50:17.854Z,10.05
2019-03-21T22:52:46.546Z,14.65
2019-03-21T22:55:15.280Z,10.70
2019-03-21T22:57:43.911Z,12.37
2019-03-21T23:00:17.979Z,18.48
2019-03-21T23:02:46.465Z,16.02
2019-03-21T23:05:16.101Z,15.68
2019-03-21T23:07:44.601Z,15.78
2019-03-21T23:10:13.691Z,12.85
2019-03-21T23:12:42.802Z,10.72
2019-03-21T23:15:12.797Z,14.03
2019-03-21T23:17:41.285Z,13.55
2019-03-21T23:20:16.413Z,13.60
2019-03-21T23:22:45.282Z,17.23
2019-03-21T23:25:16.440Z,14.58
2019-03-21T23:27:45.150Z,17.73
2019-03-21T23:30:15.684Z,18.27
2019-03-21T23:32:44.126Z,20.50
2019-03-21T23:35:12.612Z,20.90
2019-03-21T23:37:41.223Z,16.55
2019-03-21T23:40:12.013Z,17.77
2019-03-21T23:42:40.536Z,19.57
2019-03-21T23:45:10.214Z,21.95
2019-03-21T23:47:38.720Z,17.45
2019-03-21T23:50:11.503Z,21.17
2019-03-21T23:52:39.959Z,16.23
2019-03-21T23:55:09.130Z,23.07
2019-03-21T23:57:37.625Z,18.95
